createdAt,value
2022-11-23T00:01:25.867Z,8.70
2022-11-23T00:03:55.390Z,8.70
2022-11-23T00:06:23.426Z,8.80
2022-11-23T00:08:50.941Z,8.80
2022-11-23T00:11:18.417Z,8.80
2022-11-23T00:13:46.057Z,8.90
2022-11-23T00:16:23.945Z,8.90
2022-11-23T00:18:53.992Z,8.80
2022-11-23T00:21:22.303Z,8.80
2022-11-23T00:23:49.802Z,8.90
2022-11-23T00:26:17.581Z,8.80
2022-11-23T00:28:45.076Z,8.80
2022-11-23T00:31:14.052Z,8.70
2022-11-23T00:33:41.393Z,8.70
2022-11-23T00:36:12.457Z,8.70
2022-11-23T00:38:39.850Z,8.70
2022-11-23T00:41:09.316Z,8.70
2022-11-23T00:43:36.429Z,8.80
2022-11-23T00:46:24.212Z,8.80
2022-11-23T00:48:53.496Z,8.70
2022-11-23T00:51:23.179Z,8.70
2022-11-23T00:53:51.395Z,8.80
2022-11-23T00:56:18.701Z,8.80
2022-11-23T00:58:50.260Z,8.80
2022-11-23T01:01:19.285Z,8.80
2022-11-23T01:03:54.965Z,8.80
2022-11-23T01:06:33.326Z,8.80
2022-11-23T01:09:06.708Z,8.90
2022-11-23T01:11:33.631Z,9.00
2022-11-23T01:14:01.051Z,8.90
2022-11-23T01:16:33.454Z,9.00
2022-11-23T01:19:02.786Z,9.00
2022-11-23T01:21:30.603Z,9.00
2022-11-23T01:23:58.102Z,9.00
2022-11-23T01:26:25.226Z,8.90
2022-11-23T01:28:52.377Z,8.80
2022-11-23T01:31:22.123Z,8.80
2022-11-23T01:33:56.231Z,8.90
2022-11-23T01:36:25.602Z,8.90
2022-11-23T01:38:52.720Z,9.00
2022-11-23T01:41:25.663Z,9.00
2022-11-23T01:43:52.867Z,8.90
2022-11-23T01:46:20.221Z,8.90
2022-11-23T01:48:57.640Z,8.90
2022-11-23T01:51:29.273Z,8.80
2022-11-23T01:54:04.072Z,8.90
2022-11-23T01:56:37.945Z,8.90
2022-11-23T01:59:11.529Z,8.80
2022-11-23T02:01:38.409Z,8.80
2022-11-23T02:04:09.004Z,8.80
2022-11-23T02:06:36.058Z,8.80
2022-11-23T02:09:02.915Z,8.80
2022-11-23T02:11:29.721Z,8.90
2022-11-23T02:13:57.151Z,8.80
2022-11-23T02:16:23.993Z,8.80
2022-11-23T02:18:52.093Z,8.90
2022-11-23T02:21:18.971Z,8.80
2022-11-23T02:24:07.887Z,8.90
2022-11-23T02:26:36.830Z,8.90
2022-11-23T02:29:11.249Z,8.90
2022-11-23T02:31:38.233Z,9.00
2022-11-23T02:34:04.992Z,9.00
2022-11-23T02:36:41.438Z,9.00
2022-11-23T02:39:15.868Z,9.00
2022-11-23T02:41:48.802Z,9.00
2022-11-23T02:44:25.099Z,9.00
2022-11-23T02:46:53.201Z,8.90
2022-11-23T02:49:20.059Z,9.00
2022-11-23T02:51:46.805Z,9.10
2022-11-23T02:54:13.614Z,9.00
2022-11-23T02:56:40.332Z,9.10
2022-11-23T02:59:07.186Z,9.00
2022-11-23T03:01:34.021Z,9.10
2022-11-23T03:04:00.884Z,9.00
2022-11-23T03:06:28.018Z,8.90
2022-11-23T03:08:54.748Z,8.90
2022-11-23T03:11:21.575Z,9.00
2022-11-23T03:13:48.355Z,8.90
2022-11-23T03:16:16.431Z,8.90
2022-11-23T03:18:43.456Z,8.80
2022-11-23T03:21:10.212Z,8.70
2022-11-23T03:23:37.390Z,8.70
2022-11-23T03:26:07.310Z,8.60
2022-11-23T03:28:38.242Z,8.60
2022-11-23T03:31:05.830Z,8.50
2022-11-23T03:33:32.716Z,8.40
2022-11-23T03:35:59.596Z,8.40
2022-11-23T03:38:26.433Z,8.40
2022-11-23T03:40:53.313Z,8.40
2022-11-23T03:43:20.234Z,8.40
2022-11-23T03:45:47.140Z,8.40
2022-11-23T03:48:14.406Z,8.30
2022-11-23T03:50:41.149Z,8.30
2022-11-23T03:53:08.254Z,8.40
2022-11-23T03:55:35.181Z,8.40
2022-11-23T03:58:02.068Z,8.40
2022-11-23T04:00:30.151Z,8.30
2022-11-23T04:02:57.022Z,8.30
2022-11-23T04:05:23.820Z,8.30
2022-11-23T04:07:50.949Z,8.30
2022-11-23T04:10:19.396Z,8.40
2022-11-23T04:12:50.054Z,8.40
2022-11-23T04:15:17.041Z,8.50
2022-11-23T04:17:43.789Z,8.60
2022-11-23T04:20:10.944Z,8.50
2022-11-23T04:22:37.664Z,8.60
2022-11-23T04:25:04.851Z,8.60
2022-11-23T04:27:31.570Z,8.60
2022-11-23T04:29:58.285Z,8.60
2022-11-23T04:32:24.976Z,8.60
2022-11-23T04:34:51.654Z,8.60
2022-11-23T04:37:18.404Z,8.60
2022-11-23T04:39:45.108Z,8.60
2022-11-23T04:42:12.487Z,8.60
2022-11-23T04:44:39.236Z,8.60
2022-11-23T04:47:06.132Z,8.50
2022-11-23T04:49:33.104Z,8.50
2022-11-23T04:51:59.969Z,8.50
2022-11-23T04:54:26.698Z,8.50
2022-11-23T04:56:54.172Z,8.40
2022-11-23T04:59:22.173Z,8.40
2022-11-23T05:01:49.676Z,8.30
2022-11-23T05:04:18.070Z,8.30
2022-11-23T05:06:45.828Z,8.30
2022-11-23T05:09:12.904Z,8.30
2022-11-23T05:11:39.644Z,8.20
2022-11-23T05:14:06.350Z,8.20
2022-11-23T05:16:33.184Z,8.20
2022-11-23T05:18:59.982Z,8.20
2022-11-23T05:21:26.923Z,8.10
2022-11-23T05:23:53.653Z,8.20
2022-11-23T05:26:20.404Z,8.20
2022-11-23T05:28:47.105Z,8.10
2022-11-23T05:31:13.851Z,8.20
2022-11-23T05:33:40.587Z,8.30
2022-11-23T05:36:07.731Z,8.30
2022-11-23T05:38:34.736Z,8.30
2022-11-23T05:41:01.434Z,8.20
2022-11-23T05:43:28.141Z,8.30
2022-11-23T05:45:54.902Z,8.30
2022-11-23T05:48:21.664Z,8.30
2022-11-23T05:50:50.528Z,8.20
2022-11-23T05:53:17.273Z,8.20
2022-11-23T05:55:44.056Z,8.20
2022-11-23T05:58:10.844Z,8.20
2022-11-23T06:00:37.704Z,8.30
2022-11-23T06:03:04.750Z,8.30
2022-11-23T06:05:31.895Z,8.40
2022-11-23T06:07:58.597Z,8.30
2022-11-23T06:10:25.364Z,8.30
2022-11-23T06:12:52.684Z,8.30
2022-11-23T06:15:19.811Z,8.40
2022-11-23T06:17:46.518Z,8.40
2022-11-23T06:20:13.468Z,8.40
2022-11-23T06:22:40.160Z,8.40
2022-11-23T06:25:07.249Z,8.40
2022-11-23T06:27:34.047Z,8.40
2022-11-23T06:30:00.740Z,8.40
2022-11-23T06:32:27.567Z,8.50
2022-11-23T06:34:58.080Z,8.50
2022-11-23T06:37:27.460Z,8.50
2022-11-23T06:39:54.154Z,8.50
2022-11-23T06:42:38.319Z,8.40
2022-11-23T06:45:06.810Z,8.40
2022-11-23T06:47:33.535Z,8.50
2022-11-23T06:50:00.441Z,8.40
2022-11-23T06:52:27.205Z,8.40
2022-11-23T06:54:54.049Z,8.40
2022-11-23T06:57:20.903Z,8.40
2022-11-23T06:59:48.390Z,8.40
2022-11-23T07:02:15.168Z,8.40
2022-11-23T07:04:41.900Z,8.40
2022-11-23T07:07:09.310Z,8.40
2022-11-23T07:09:36.168Z,8.30
2022-11-23T07:12:03.138Z,8.30
2022-11-23T07:14:29.911Z,8.30
2022-11-23T07:16:56.768Z,8.30
2022-11-23T07:19:23.509Z,8.30
2022-11-23T07:21:50.222Z,8.20
2022-11-23T07:24:16.993Z,8.10
2022-11-23T07:26:43.746Z,8.10
2022-11-23T07:29:10.641Z,8.00
2022-11-23T07:31:37.448Z,8.00
2022-11-23T07:34:04.951Z,8.00
2022-11-23T07:36:31.785Z,7.90
2022-11-23T07:38:58.556Z,7.90
2022-11-23T07:41:27.388Z,7.90
2022-11-23T07:43:54.652Z,7.90
2022-11-23T07:46:21.952Z,7.80
2022-11-23T07:48:48.748Z,7.90
2022-11-23T07:51:16.447Z,7.90
2022-11-23T07:53:43.225Z,8.00
2022-11-23T07:56:10.076Z,8.10
2022-11-23T07:58:36.999Z,8.10
2022-11-23T08:01:03.925Z,8.10
2022-11-23T08:03:31.004Z,8.20
2022-11-23T08:05:58.172Z,8.30
2022-11-23T08:08:24.972Z,8.30
2022-11-23T08:10:54.326Z,8.40
2022-11-23T08:13:22.494Z,8.40
2022-11-23T08:15:54.898Z,8.40
2022-11-23T08:18:24.052Z,8.40
2022-11-23T08:20:50.796Z,8.50
2022-11-23T08:23:17.777Z,8.50
2022-11-23T08:25:45.104Z,8.60
2022-11-23T08:28:12.060Z,8.60
2022-11-23T08:30:41.885Z,8.70
2022-11-23T08:33:09.965Z,8.80
2022-11-23T08:35:38.109Z,8.70
2022-11-23T08:38:06.280Z,8.80
2022-11-23T08:40:33.594Z,8.70
2022-11-23T08:43:00.310Z,8.70
2022-11-23T08:45:27.698Z,8.70
2022-11-23T08:47:55.717Z,8.70
2022-11-23T08:50:22.643Z,8.80
2022-11-23T08:52:55.891Z,8.90
2022-11-23T08:55:23.171Z,8.70
2022-11-23T08:57:50.456Z,8.60
2022-11-23T09:00:17.671Z,8.70
2022-11-23T09:02:44.421Z,8.70
2022-11-23T09:05:11.446Z,8.70
2022-11-23T09:07:38.391Z,8.70
2022-11-23T09:10:05.736Z,8.70
2022-11-23T09:12:33.462Z,8.80
2022-11-23T09:15:00.261Z,9.00
2022-11-23T09:17:27.112Z,9.10
2022-11-23T09:19:53.886Z,9.20
2022-11-23T09:22:20.647Z,9.30
2022-11-23T09:24:47.371Z,9.50
2022-11-23T09:27:14.149Z,9.60
2022-11-23T09:29:40.915Z,9.50
2022-11-23T09:32:07.654Z,9.50
2022-11-23T09:34:34.661Z,9.40
2022-11-23T09:37:01.583Z,9.40
2022-11-23T09:39:28.317Z,9.40
2022-11-23T09:42:27.061Z,9.40
2022-11-23T09:45:16.305Z,9.40
2022-11-23T09:48:04.787Z,9.40
2022-11-23T09:50:52.769Z,9.50
2022-11-23T09:53:29.724Z,9.50
2022-11-23T09:55:58.027Z,9.50
2022-11-23T09:58:32.991Z,9.60
2022-11-23T10:01:11.492Z,9.70
2022-11-23T10:03:47.160Z,9.70
2022-11-23T10:06:25.814Z,9.60
2022-11-23T10:09:11.517Z,9.50
2022-11-23T10:11:57.105Z,9.60
2022-11-23T10:14:39.873Z,9.60
2022-11-23T10:17:20.725Z,9.70
2022-11-23T10:20:12.429Z,9.60
2022-11-23T10:22:59.141Z,9.60
2022-11-23T10:25:39.268Z,9.60
2022-11-23T10:28:18.272Z,9.70
2022-11-23T10:31:12.421Z,9.80
2022-11-23T10:34:14.223Z,9.80
2022-11-23T10:36:42.093Z,9.60
2022-11-23T10:39:26.552Z,9.60
2022-11-23T10:41:57.509Z,9.80
2022-11-23T10:44:38.012Z,9.80
2022-11-23T10:47:05.602Z,10.00
2022-11-23T10:49:35.229Z,10.30
2022-11-23T10:52:25.602Z,10.50
2022-11-23T10:54:58.457Z,10.40
2022-11-23T10:57:28.250Z,10.50
2022-11-23T11:00:05.883Z,10.50
2022-11-23T11:02:50.356Z,10.50
2022-11-23T11:05:53.472Z,10.60
2022-11-23T11:08:21.054Z,10.70
2022-11-23T11:10:58.960Z,10.80
2022-11-23T11:13:40.434Z,10.80
2022-11-23T11:16:36.714Z,10.70
2022-11-23T11:19:25.555Z,10.40
2022-11-23T11:21:52.302Z,10.50
2022-11-23T11:24:31.475Z,10.50
2022-11-23T11:27:01.402Z,10.50
2022-11-23T11:29:39.436Z,10.50
2022-11-23T11:32:28.136Z,10.40
2022-11-23T11:35:01.134Z,10.40
2022-11-23T11:37:32.827Z,10.70
2022-11-23T11:40:17.490Z,10.60
2022-11-23T11:42:52.284Z,10.60
2022-11-23T11:45:36.842Z,10.50
2022-11-23T11:48:10.484Z,10.60
2022-11-23T11:50:47.350Z,10.30
2022-11-23T11:53:22.365Z,10.20
2022-11-23T11:56:33.483Z,10.20
2022-11-23T11:59:31.358Z,10.30
2022-11-23T12:02:19.313Z,10.30
2022-11-23T12:05:10.393Z,10.30
2022-11-23T12:07:46.506Z,10.20
2022-11-23T12:10:18.559Z,10.30
2022-11-23T12:12:48.222Z,10.50
2022-11-23T12:15:48.523Z,10.60
2022-11-23T12:18:26.246Z,10.80
2022-11-23T12:21:13.618Z,10.80
2022-11-23T12:24:16.601Z,10.80
2022-11-23T12:27:17.751Z,11.20
2022-11-23T12:30:21.648Z,11.40
2022-11-23T12:33:26.094Z,11.30
2022-11-23T12:36:24.012Z,11.10
2022-11-23T12:39:09.083Z,11.00
2022-11-23T12:42:03.468Z,10.60
2022-11-23T12:44:49.154Z,10.50
2022-11-23T12:47:51.135Z,10.50
2022-11-23T12:50:36.152Z,10.40
2022-11-23T12:53:34.597Z,10.50
2022-11-23T12:56:38.948Z,10.50
2022-11-23T12:59:10.373Z,10.50
2022-11-23T13:01:44.802Z,10.60
2022-11-23T13:04:48.496Z,10.50
2022-11-23T13:07:35.972Z,10.50
2022-11-23T13:10:36.420Z,10.40
2022-11-23T13:13:17.982Z,10.40
2022-11-23T13:16:10.078Z,10.50
2022-11-23T13:18:58.840Z,10.80
2022-11-23T13:21:37.457Z,10.70
2022-11-23T13:24:04.672Z,10.90
2022-11-23T13:26:31.764Z,10.90
2022-11-23T13:28:59.160Z,11.10
2022-11-23T13:31:31.529Z,10.90
2022-11-23T13:34:01.938Z,10.70
2022-11-23T13:39:43.957Z,10.60
2022-11-23T13:42:11.384Z,10.40
2022-11-23T13:44:38.505Z,10.40
2022-11-23T13:47:16.092Z,10.30
2022-11-23T13:49:42.862Z,10.20
2022-11-23T13:52:22.446Z,10.20
2022-11-23T13:55:13.184Z,10.30
2022-11-23T13:57:45.304Z,10.30
2022-11-23T14:00:46.667Z,10.30
2022-11-23T14:03:48.914Z,10.30
2022-11-23T14:06:23.298Z,10.20
2022-11-23T14:09:04.833Z,10.10
2022-11-23T14:11:40.009Z,10.10
2022-11-23T14:14:17.085Z,10.20
2022-11-23T14:17:14.137Z,10.10
2022-11-23T14:20:05.802Z,10.00
2022-11-23T14:22:44.012Z,10.10
2022-11-23T14:25:24.118Z,9.90
2022-11-23T14:28:02.599Z,9.80
2022-11-23T14:30:32.452Z,9.80
2022-11-23T14:33:17.422Z,9.80
2022-11-23T14:35:52.463Z,9.70
2022-11-23T14:38:22.257Z,9.70
2022-11-23T14:40:55.027Z,9.70
2022-11-23T14:43:22.252Z,9.60
2022-11-23T14:45:49.565Z,9.60
2022-11-23T14:48:23.969Z,9.60
2022-11-23T14:51:03.486Z,9.60
2022-11-23T14:53:46.687Z,9.60
2022-11-23T14:56:34.075Z,9.60
2022-11-23T14:59:34.496Z,9.60
2022-11-23T15:02:05.015Z,9.60
2022-11-23T15:04:41.018Z,9.60
2022-11-23T15:07:23.470Z,9.60
2022-11-23T15:09:56.706Z,9.60
2022-11-23T15:12:25.903Z,9.60
2022-11-23T15:14:54.348Z,9.50
2022-11-23T15:17:22.892Z,9.40
2022-11-23T15:20:00.648Z,9.30
2022-11-23T15:22:28.992Z,9.30
2022-11-23T15:25:13.332Z,9.30
2022-11-23T15:27:44.187Z,9.20
2022-11-23T15:30:28.796Z,9.30
2022-11-23T15:33:01.287Z,9.20
2022-11-23T15:35:34.178Z,9.20
2022-11-23T15:38:02.234Z,9.30
2022-11-23T15:40:36.172Z,9.30
2022-11-23T15:43:03.539Z,9.20
2022-11-23T15:45:45.305Z,9.20
2022-11-23T15:48:16.243Z,9.30
2022-11-23T15:50:58.144Z,9.20
2022-11-23T15:53:27.637Z,9.20
2022-11-23T15:55:58.645Z,9.10
2022-11-23T15:58:25.498Z,9.10
2022-11-23T16:01:10.636Z,9.00
2022-11-23T16:03:40.426Z,9.00
2022-11-23T16:06:12.992Z,8.90
2022-11-23T16:08:40.956Z,8.70
2022-11-23T16:11:33.625Z,8.50
2022-11-23T16:14:18.588Z,8.40
2022-11-23T16:16:48.386Z,8.30
2022-11-23T16:19:48.640Z,8.20
2022-11-23T16:22:27.389Z,8.20
2022-11-23T16:25:16.543Z,8.10
2022-11-23T16:27:43.373Z,8.00
2022-11-23T16:30:28.300Z,8.00
2022-11-23T16:32:55.113Z,8.00
2022-11-23T16:35:21.965Z,8.00
2022-11-23T16:37:48.741Z,8.00
2022-11-23T16:40:15.804Z,8.00
2022-11-23T16:42:43.095Z,8.00
2022-11-23T16:45:10.949Z,8.00
2022-11-23T16:47:54.026Z,8.00
2022-11-23T16:50:21.975Z,8.00
2022-11-23T16:52:48.958Z,8.10
2022-11-23T16:55:15.713Z,8.20
2022-11-23T16:57:43.968Z,8.10
2022-11-23T17:00:28.920Z,8.10
2022-11-23T17:02:55.716Z,8.00
2022-11-23T17:05:25.435Z,7.90
2022-11-23T17:07:52.224Z,7.80
2022-11-23T17:10:19.073Z,7.80
2022-11-23T17:12:54.675Z,7.80
2022-11-23T17:15:23.182Z,7.70
2022-11-23T17:17:50.587Z,7.70
2022-11-23T17:20:18.288Z,7.70
2022-11-23T17:22:45.397Z,7.70
2022-11-23T17:25:15.125Z,7.70
2022-11-23T17:27:43.649Z,7.70
2022-11-23T17:30:14.861Z,7.60
2022-11-23T17:32:41.649Z,7.60
2022-11-23T17:35:08.445Z,7.50
2022-11-23T17:37:36.798Z,7.40
2022-11-23T17:40:03.874Z,7.40
2022-11-23T17:42:30.656Z,7.40
2022-11-23T17:44:57.424Z,7.50
2022-11-23T17:47:28.855Z,7.40
2022-11-23T17:49:56.624Z,7.40
2022-11-23T17:52:24.569Z,7.40
2022-11-23T17:54:51.890Z,7.40
2022-11-23T17:57:23.644Z,7.30
2022-11-23T17:59:50.353Z,7.30
2022-11-23T18:02:17.192Z,7.30
2022-11-23T18:04:43.893Z,7.20
2022-11-23T18:07:14.204Z,7.30
2022-11-23T18:09:41.736Z,7.30
2022-11-23T18:12:09.683Z,7.30
2022-11-23T18:14:37.288Z,7.30
2022-11-23T18:17:04.148Z,7.30
2022-11-23T18:19:31.303Z,7.30
2022-11-23T18:21:58.376Z,7.30
2022-11-23T18:24:25.213Z,7.30
2022-11-23T18:26:51.991Z,7.30
2022-11-23T18:29:18.760Z,7.30
2022-11-23T18:31:45.636Z,7.20
2022-11-23T18:34:12.496Z,7.20
2022-11-23T18:36:39.280Z,7.30
2022-11-23T18:39:06.503Z,7.30
2022-11-23T18:41:33.250Z,7.30
2022-11-23T18:44:00.035Z,7.30
2022-11-23T18:46:28.113Z,7.30
2022-11-23T18:48:57.248Z,7.30
2022-11-23T18:51:24.153Z,7.30
2022-11-23T18:53:51.417Z,7.40
2022-11-23T18:56:18.241Z,7.30
2022-11-23T18:58:45.933Z,7.20
2022-11-23T19:01:15.297Z,7.20
2022-11-23T19:03:42.520Z,7.20
2022-11-23T19:06:13.470Z,7.20
2022-11-23T19:08:46.013Z,7.10
2022-11-23T19:11:19.379Z,7.00
2022-11-23T19:13:48.345Z,6.90
2022-11-23T19:16:17.854Z,6.80
2022-11-23T19:18:45.200Z,6.80
2022-11-23T19:21:20.352Z,6.70
2022-11-23T19:23:52.920Z,6.70
2022-11-23T19:26:20.345Z,6.60
2022-11-23T19:28:47.664Z,6.60
2022-11-23T19:31:17.898Z,6.50
2022-11-23T19:33:46.552Z,6.60
2022-11-23T19:36:18.215Z,6.50
2022-11-23T19:38:45.476Z,6.50
2022-11-23T19:41:12.662Z,6.40
2022-11-23T19:43:39.878Z,6.40
2022-11-23T19:46:10.615Z,6.30
2022-11-23T19:48:37.644Z,6.30
2022-11-23T19:51:07.253Z,6.30
2022-11-23T19:53:36.271Z,6.20
2022-11-23T19:56:14.396Z,6.10
2022-11-23T19:58:42.302Z,6.10
2022-11-23T20:01:14.055Z,6.00
2022-11-23T20:03:46.230Z,5.90
2022-11-23T20:06:26.311Z,6.00
2022-11-23T20:09:00.504Z,5.90
2022-11-23T20:11:29.548Z,5.90
2022-11-23T20:13:57.230Z,6.00
2022-11-23T20:16:25.666Z,6.00
2022-11-23T20:19:01.084Z,5.90
2022-11-23T20:21:29.365Z,5.90
2022-11-23T20:24:03.010Z,6.00
2022-11-23T20:26:32.339Z,5.90
2022-11-23T20:28:59.651Z,5.90
2022-11-23T20:31:29.019Z,5.90
2022-11-23T20:33:56.810Z,5.90
2022-11-23T20:36:25.903Z,5.90
2022-11-23T20:38:53.743Z,5.90
2022-11-23T20:41:29.072Z,5.90
2022-11-23T20:43:58.144Z,5.80
2022-11-23T20:46:46.071Z,5.80
2022-11-23T20:49:13.295Z,5.80
2022-11-23T20:51:40.021Z,5.80
2022-11-23T20:54:06.984Z,5.80
2022-11-23T20:56:36.604Z,5.70
2022-11-23T20:59:04.690Z,5.60
2022-11-23T21:01:31.758Z,5.60
2022-11-23T21:03:59.668Z,5.60
2022-11-23T21:06:27.279Z,5.50
2022-11-23T21:08:54.925Z,5.60
2022-11-23T21:11:41.636Z,5.50
2022-11-23T21:14:17.615Z,5.50
2022-11-23T21:16:54.971Z,5.40
2022-11-23T21:19:27.589Z,5.50
2022-11-23T21:21:55.538Z,5.40
2022-11-23T21:24:22.640Z,5.40
2022-11-23T21:26:49.667Z,5.40
2022-11-23T21:29:17.717Z,5.30
2022-11-23T21:31:46.404Z,5.30
2022-11-23T21:34:21.810Z,5.30
2022-11-23T21:36:49.267Z,5.30
2022-11-23T21:39:16.862Z,5.30
2022-11-23T21:41:44.049Z,5.30
2022-11-23T21:44:11.829Z,5.40
2022-11-23T21:46:40.467Z,5.50
2022-11-23T21:49:07.888Z,5.70
2022-11-23T21:51:35.837Z,6.00
2022-11-23T21:54:09.786Z,6.10
2022-11-23T21:56:36.591Z,6.20
2022-11-23T21:59:03.413Z,6.20
2022-11-23T22:01:32.825Z,6.30
2022-11-23T22:04:15.133Z,6.50
2022-11-23T22:06:44.407Z,6.60
2022-11-23T22:09:12.133Z,6.70
2022-11-23T22:11:41.666Z,6.90
2022-11-23T22:14:11.927Z,7.00
2022-11-23T22:16:41.688Z,7.10
2022-11-23T22:19:11.800Z,7.20
2022-11-23T22:21:40.666Z,7.30
2022-11-23T22:24:11.472Z,7.40
2022-11-23T22:26:38.570Z,7.50
2022-11-23T22:29:06.784Z,7.50
2022-11-23T22:31:35.048Z,7.40
2022-11-23T22:34:04.046Z,7.40
2022-11-23T22:36:31.325Z,7.40
2022-11-23T22:39:04.554Z,7.30
2022-11-23T22:41:38.645Z,7.40
2022-11-23T22:44:10.340Z,7.40
2022-11-23T22:46:37.817Z,7.40
2022-11-23T22:49:05.116Z,7.40
2022-11-23T22:51:32.132Z,7.40
2022-11-23T22:54:00.334Z,7.40
2022-11-23T22:56:28.728Z,7.40
2022-11-23T22:58:55.691Z,7.40
2022-11-23T23:01:26.364Z,7.40
2022-11-23T23:03:58.509Z,7.40
2022-11-23T23:06:28.390Z,7.30
2022-11-23T23:09:00.007Z,7.30
2022-11-23T23:11:29.705Z,7.20
2022-11-23T23:13:57.112Z,7.20
2022-11-23T23:16:24.789Z,7.20
2022-11-23T23:18:52.144Z,7.20
2022-11-23T23:21:20.873Z,7.30
2022-11-23T23:23:49.860Z,7.20
2022-11-23T23:26:18.657Z,7.20
2022-11-23T23:28:45.883Z,7.20
2022-11-23T23:31:16.147Z,7.20
2022-11-23T23:33:43.743Z,7.30
2022-11-23T23:36:16.197Z,7.30
2022-11-23T23:38:43.306Z,7.30
2022-11-23T23:41:11.621Z,7.40
2022-11-23T23:43:38.727Z,7.30
2022-11-23T23:46:08.858Z,7.30
2022-11-23T23:48:37.803Z,7.30
2022-11-23T23:51:13.492Z,7.20
2022-11-23T23:53:40.951Z,7.20
2022-11-23T23:56:12.385Z,7.20
2022-11-23T23:58:39.375Z,7.20
